Terminal Aerodrome Forecast
Issued by NWS Cleveland, OH

Home | Current Version | Previous Version | Text Only | Print | Product List | Glossary Off
Versions: 1 2 3 4 5 6 7 8 9 10 11 12 13 14 15 16 17 18 19 20

507
FTUS41 KCLE 080423 AAA
TAFMFD
TAF AMD
KMFD 080423Z 0804/0824 25008KT P6SM BKN028
     FM080800 26010KT P6SM FEW025 SCT080
     FM081400 23012KT P6SM SKC=

USA.gov is the U.S. government's official web portal to all federal, state and local government web resources and services.